Time,TemperatureF,DewpointF,PressureIn,WindDirection,WindDirectionDegrees,WindSpeedMPH,WindSpeedGustMPH,Humidity,HourlyPrecipIn,Conditions,Clouds,dailyrainin,SolarRadiationWatts/m^2,SoftwareType,DateUTC
2013-07-05 00:05:00,73.8,71.0,30.21,West,275,2.0,4.0,91,0.00,,,0.00,0,Wunderground v.1.15,2013-07-05 04:05:00,
2013-07-05 00:15:00,73.9,70.8,30.21,NW,313,2.0,3.0,90,0.00,,,0.00,0,Wunderground v.1.15,2013-07-05 04:15:00,
2013-07-05 00:20:00,74.0,70.9,30.21,West,269,2.0,2.0,90,0.00,,,0.00,0,Wunderground v.1.15,2013-07-05 04:20:00,
2013-07-05 00:25:00,74.0,70.9,30.21,SW,221,2.0,2.0,90,0.00,,,0.00,0,Wunderground v.1.15,2013-07-05 04:25:00,
2013-07-05 00:35:00,73.9,70.8,30.21,WSW,239,2.0,3.0,90,0.00,,,0.00,0,Wunderground v.1.15,2013-07-05 04:35:00,
2013-07-05 00:45:00,73.9,70.8,30.21,SSE,155,2.0,3.0,90,0.00,,,0.00,0,Wunderground v.1.15,2013-07-05 04:45:00,
2013-07-05 00:54:00,73.9,70.8,30.21,NW,307,2.0,5.0,90,0.00,,,0.00,0,Wunderground v.1.15,2013-07-05 04:54:00,
2013-07-05 01:00:00,73.8,70.7,30.21,West,277,2.0,2.0,90,0.00,,,0.00,0,Wunderground v.1.15,2013-07-05 05:00:00,
2013-07-05 01:05:00,73.8,70.7,30.22,South,184,2.0,3.0,90,0.00,,,0.00,0,Wunderground v.1.15,2013-07-05 05:05:00,
2013-07-05 01:10:00,73.8,70.7,30.21,West,271,2.0,2.0,90,0.00,,,0.00,0,Wunderground v.1.15,2013-07-05 05:10:00,
2013-07-05 01:20:00,73.8,70.7,30.21,SSE,165,1.0,1.0,90,0.00,,,0.00,0,Wunderground v.1.15,2013-07-05 05:20:00,
2013-07-05 01:25:00,73.7,70.6,30.21,West,265,1.0,2.0,90,0.00,,,0.00,0,Wunderground v.1.15,2013-07-05 05:25:00,
2013-07-05 01:30:00,73.7,70.6,30.21,West,264,1.0,1.0,90,0.00,,,0.00,0,Wunderground v.1.15,2013-07-05 05:30:00,
2013-07-05 01:40:00,73.6,70.5,30.21,SW,229,2.0,2.0,90,0.00,,,0.00,0,Wunderground v.1.15,2013-07-05 05:40:00,
2013-07-05 01:45:00,73.5,70.7,30.21,SSE,165,1.0,5.0,91,0.00,,,0.00,0,Wunderground v.1.15,2013-07-05 05:45:00,
2013-07-05 01:55:00,73.4,70.6,30.21,West,259,1.0,2.0,91,0.00,,,0.00,0,Wunderground v.1.15,2013-07-05 05:55:00,
2013-07-05 02:00:00,73.4,70.6,30.21,SW,218,1.0,1.0,91,0.00,,,0.00,0,Wunderground v.1.15,2013-07-05 06:00:00,
2013-07-05 02:10:00,73.3,70.5,30.21,SSW,197,1.0,1.0,91,0.00,,,0.00,0,Wunderground v.1.15,2013-07-05 06:10:00,
2013-07-05 02:15:00,73.1,70.3,30.21,SSE,167,2.0,2.0,91,0.00,,,0.00,0,Wunderground v.1.15,2013-07-05 06:15:00,
2013-07-05 02:25:00,73.0,70.2,30.21,West,266,1.0,2.0,91,0.00,,,0.00,0,Wunderground v.1.15,2013-07-05 06:25:00,
2013-07-05 02:35:00,72.8,70.0,30.21,SSW,209,1.0,1.0,91,0.00,,,0.00,0,Wunderground v.1.15,2013-07-05 06:35:00,
2013-07-05 02:45:00,72.6,69.8,30.21,ESE,104,1.0,1.0,91,0.00,,,0.00,0,Wunderground v.1.15,2013-07-05 06:45:00,
2013-07-05 02:50:00,72.5,69.7,30.21,South,182,1.0,1.0,91,0.00,,,0.00,0,Wunderground v.1.15,2013-07-05 06:50:00,
2013-07-05 02:55:00,72.5,69.7,30.21,WSW,258,1.0,1.0,91,0.00,,,0.00,0,Wunderground v.1.15,2013-07-05 06:55:00,
2013-07-05 03:05:00,72.3,69.5,30.21,West,261,1.0,2.0,91,0.00,,,0.00,0,Wunderground v.1.15,2013-07-05 07:05:00,
2013-07-05 03:10:00,72.3,69.8,30.21,SSW,193,1.0,1.0,92,0.00,,,0.00,0,Wunderground v.1.15,2013-07-05 07:10:00,
2013-07-05 03:15:00,72.2,69.7,30.21,West,269,1.0,1.0,92,0.00,,,0.00,0,Wunderground v.1.15,2013-07-05 07:15:00,
2013-07-05 03:25:00,72.2,69.7,30.21,West,273,1.0,2.0,92,0.00,,,0.00,0,Wunderground v.1.15,2013-07-05 07:25:00,
2013-07-05 03:30:00,72.2,69.7,30.20,SSW,211,1.0,6.0,92,0.00,,,0.00,0,Wunderground v.1.15,2013-07-05 07:30:00,
2013-07-05 03:40:00,72.2,69.7,30.20,West,267,1.0,1.0,92,0.00,,,0.00,0,Wunderground v.1.15,2013-07-05 07:40:00,
2013-07-05 03:45:00,72.2,69.7,30.20,South,181,1.0,1.0,92,0.00,,,0.00,0,Wunderground v.1.15,2013-07-05 07:45:00,
2013-07-05 03:55:00,72.2,69.7,30.20,South,171,1.0,1.0,92,0.00,,,0.00,0,Wunderground v.1.15,2013-07-05 07:55:00,
2013-07-05 04:00:00,72.1,70.0,30.20,SSW,212,1.0,1.0,93,0.00,,,0.00,0,Wunderground v.1.15,2013-07-05 08:00:00,
2013-07-05 04:10:00,72.1,70.0,30.20,SW,218,1.0,1.0,93,0.00,,,0.00,0,Wunderground v.1.15,2013-07-05 08:10:00,
2013-07-05 04:15:00,72.2,70.1,30.20,SW,220,1.0,2.0,93,0.00,,,0.00,0,Wunderground v.1.15,2013-07-05 08:15:00,
2013-07-05 04:25:00,72.2,70.1,30.20,South,179,1.0,4.0,93,0.00,,,0.00,0,Wunderground v.1.15,2013-07-05 08:25:00,
2013-07-05 04:35:00,72.2,70.1,30.20,SW,230,1.0,1.0,93,0.00,,,0.00,0,Wunderground v.1.15,2013-07-05 08:35:00,
2013-07-05 04:45:00,72.2,70.1,30.20,South,188,0.0,1.0,93,0.00,,,0.00,0,Wunderground v.1.15,2013-07-05 08:45:00,
2013-07-05 04:55:00,72.2,70.1,30.20,SW,214,0.0,1.0,93,0.00,,,0.00,0,Wunderground v.1.15,2013-07-05 08:55:00,
2013-07-05 05:10:00,72.1,70.0,30.20,West,269,0.0,0.0,93,0.00,,,0.00,0,Wunderground v.1.15,2013-07-05 09:10:00,
2013-07-05 05:15:00,72.1,70.0,30.20,SSE,157,0.0,0.0,93,0.00,,,0.00,0,Wunderground v.1.15,2013-07-05 09:15:00,
2013-07-05 05:25:00,72.1,70.0,30.21,South,172,0.0,0.0,93,0.00,,,0.00,0,Wunderground v.1.15,2013-07-05 09:25:00,
2013-07-05 05:35:00,72.0,69.9,30.21,WSW,244,1.0,2.0,93,0.00,,,0.00,5,Wunderground v.1.15,2013-07-05 09:35:00,
2013-07-05 05:40:00,72.0,69.9,30.21,WNW,284,1.0,2.0,93,0.00,,,0.00,5,Wunderground v.1.15,2013-07-05 09:40:00,
2013-07-05 05:54:00,71.9,69.8,30.21,SW,229,0.0,0.0,93,0.00,,,0.00,11,Wunderground v.1.15,2013-07-05 09:54:00,
2013-07-05 06:00:00,71.9,69.8,30.21,SSE,165,0.0,0.0,93,0.00,,,0.00,12,Wunderground v.1.15,2013-07-05 10:00:00,
2013-07-05 06:05:00,71.9,69.8,30.21,SSE,158,0.0,0.0,93,0.00,,,0.00,16,Wunderground v.1.15,2013-07-05 10:05:00,
2013-07-05 06:15:00,71.9,69.8,30.21,WSW,244,0.0,1.0,93,0.00,,,0.00,19,Wunderground v.1.15,2013-07-05 10:15:00,
2013-07-05 06:25:00,72.0,70.2,30.21,SW,224,0.0,1.0,94,0.00,,,0.00,23,Wunderground v.1.15,2013-07-05 10:25:00,
2013-07-05 06:30:00,72.0,70.2,30.21,South,171,0.0,0.0,94,0.00,,,0.00,25,Wunderground v.1.15,2013-07-05 10:30:00,
2013-07-05 06:40:00,72.1,70.3,30.21,South,174,0.0,0.0,94,0.00,,,0.00,26,Wunderground v.1.15,2013-07-05 10:40:00,
2013-07-05 07:00:00,72.6,70.8,30.21,South,186,0.0,0.0,94,0.00,,,0.00,32,Wunderground v.1.15,2013-07-05 11:00:00,
2013-07-05 07:05:00,72.8,71.0,30.21,West,259,0.0,0.0,94,0.00,,,0.00,32,Wunderground v.1.15,2013-07-05 11:05:00,
2013-07-05 07:15:00,73.1,71.3,30.22,South,182,0.0,1.0,94,0.00,,,0.00,35,Wunderground v.1.15,2013-07-05 11:15:00,
2013-07-05 07:20:00,73.3,71.2,30.22,South,169,0.0,0.0,93,0.00,,,0.00,35,Wunderground v.1.15,2013-07-05 11:20:00,
2013-07-05 07:30:00,73.5,71.4,30.22,SSW,197,0.0,2.0,93,0.00,,,0.00,37,Wunderground v.1.15,2013-07-05 11:30:00,
2013-07-05 07:35:00,73.7,71.5,30.22,South,187,1.0,2.0,93,0.00,,,0.00,39,Wunderground v.1.15,2013-07-05 11:35:00,
2013-07-05 07:45:00,74.0,71.5,30.22,SW,235,1.0,2.0,92,0.00,,,0.00,40,Wunderground v.1.15,2013-07-05 11:45:00,
2013-07-05 07:50:00,74.1,71.6,30.22,South,176,1.0,1.0,92,0.00,,,0.00,40,Wunderground v.1.15,2013-07-05 11:50:00,
2013-07-05 08:00:00,74.4,71.9,30.22,South,180,0.0,0.0,92,0.00,,,0.00,109,Wunderground v.1.15,2013-07-05 12:00:00,
2013-07-05 08:05:00,74.7,72.2,30.22,SW,222,0.0,1.0,92,0.00,,,0.00,42,Wunderground v.1.15,2013-07-05 12:05:00,
2013-07-05 08:20:00,75.4,72.3,30.22,South,188,1.0,1.0,90,0.00,,,0.00,46,Wunderground v.1.15,2013-07-05 12:20:00,
2013-07-05 08:25:00,75.5,72.4,30.22,SSW,209,0.0,2.0,90,0.00,,,0.00,46,Wunderground v.1.15,2013-07-05 12:25:00,
2013-07-05 08:35:00,75.8,72.3,30.22,SW,234,1.0,2.0,89,0.00,,,0.00,47,Wunderground v.1.15,2013-07-05 12:35:00,
2013-07-05 08:40:00,75.9,72.1,30.22,SSW,203,1.0,1.0,88,0.00,,,0.00,47,Wunderground v.1.15,2013-07-05 12:40:00,
2013-07-05 08:50:00,76.1,72.3,30.22,South,175,1.0,1.0,88,0.00,,,0.00,49,Wunderground v.1.15,2013-07-05 12:50:00,
2013-07-05 09:00:00,76.2,72.0,30.22,SW,233,1.0,1.0,87,0.00,,,0.00,51,Wunderground v.1.15,2013-07-05 13:00:00,
2013-07-05 09:10:00,76.1,71.6,30.21,SW,234,1.0,1.0,86,0.00,,,0.00,174,Wunderground v.1.15,2013-07-05 13:10:00,
2013-07-05 09:20:00,76.0,71.8,30.21,South,184,2.0,2.0,87,0.00,,,0.00,54,Wunderground v.1.15,2013-07-05 13:20:00,
2013-07-05 09:25:00,76.0,71.8,30.21,South,174,1.0,3.0,87,0.00,,,0.00,76,Wunderground v.1.15,2013-07-05 13:25:00,
2013-07-05 09:35:00,76.1,71.9,30.21,SE,128,2.0,3.0,87,0.00,,,0.00,253,Wunderground v.1.15,2013-07-05 13:35:00,
2013-07-05 09:45:00,76.2,72.0,30.21,South,185,2.0,4.0,87,0.00,,,0.00,120,Wunderground v.1.15,2013-07-05 13:45:00,
2013-07-05 09:50:00,76.3,72.1,30.21,SW,214,2.0,2.0,87,0.00,,,0.00,60,Wunderground v.1.15,2013-07-05 13:50:00,
2013-07-05 09:59:00,76.5,72.3,30.21,South,180,2.0,2.0,87,0.00,,,0.00,65,Wunderground v.1.15,2013-07-05 13:59:00,
2013-07-05 10:10:00,76.5,72.0,30.21,South,180,2.0,2.0,86,0.00,,,0.00,67,Wunderground v.1.15,2013-07-05 14:10:00,
2013-07-05 10:20:00,76.4,72.2,30.21,SW,219,2.0,2.0,87,0.00,,,0.00,69,Wunderground v.1.15,2013-07-05 14:20:00,
2013-07-05 10:35:00,76.6,72.4,30.21,South,173,2.0,3.0,87,0.00,,,0.00,79,Wunderground v.1.15,2013-07-05 14:35:00,
2013-07-05 10:45:00,76.7,72.2,30.21,SSW,196,2.0,2.0,86,0.00,,,0.00,77,Wunderground v.1.15,2013-07-05 14:45:00,
2013-07-05 10:55:00,76.9,72.4,30.21,SSW,194,2.0,2.0,86,0.00,,,0.00,81,Wunderground v.1.15,2013-07-05 14:55:00,
2013-07-05 11:05:00,77.2,72.7,30.21,SSW,205,2.0,2.0,86,0.00,,,0.00,181,Wunderground v.1.15,2013-07-05 15:05:00,
2013-07-05 11:15:00,77.5,73.0,30.21,South,171,3.0,3.0,86,0.00,,,0.00,95,Wunderground v.1.15,2013-07-05 15:15:00,
2013-07-05 11:20:00,77.7,73.2,30.21,SSE,154,2.0,2.0,86,0.00,,,0.00,355,Wunderground v.1.15,2013-07-05 15:20:00,
2013-07-05 11:30:00,78.2,73.3,30.21,South,172,2.0,8.0,85,0.00,,,0.00,91,Wunderground v.1.15,2013-07-05 15:30:00,
2013-07-05 11:40:00,78.5,73.6,30.20,SW,223,2.0,2.0,85,0.00,,,0.00,95,Wunderground v.1.15,2013-07-05 15:40:00,
2013-07-05 11:45:00,78.7,73.8,30.20,SSW,201,2.0,2.0,85,0.00,,,0.00,120,Wunderground v.1.15,2013-07-05 15:45:00,
2013-07-05 11:55:00,79.1,73.8,30.20,SW,229,3.0,3.0,84,0.00,,,0.00,775,Wunderground v.1.15,2013-07-05 15:55:00,
2013-07-05 12:00:00,79.3,74.0,30.20,SSE,150,2.0,3.0,84,0.00,,,0.00,898,Wunderground v.1.15,2013-07-05 16:00:00,
2013-07-05 12:05:00,79.5,73.9,30.20,SSE,164,2.0,3.0,83,0.00,,,0.00,904,Wunderground v.1.15,2013-07-05 16:05:00,
2013-07-05 12:15:00,80.2,74.2,30.19,SSE,166,2.0,3.0,82,0.00,,,0.00,916,Wunderground v.1.15,2013-07-05 16:15:00,
2013-07-05 12:20:00,80.4,74.4,30.19,SSW,192,2.0,2.0,82,0.00,,,0.00,925,Wunderground v.1.15,2013-07-05 16:20:00,
2013-07-05 12:30:00,80.6,74.2,30.19,South,170,3.0,3.0,81,0.00,,,0.00,930,Wunderground v.1.15,2013-07-05 16:30:00,
2013-07-05 12:40:00,81.0,74.2,30.19,SW,221,2.0,5.0,80,0.00,,,0.00,940,Wunderground v.1.15,2013-07-05 16:40:00,
2013-07-05 12:50:00,81.4,74.6,30.19,WSW,254,2.0,2.0,80,0.00,,,0.00,947,Wunderground v.1.15,2013-07-05 16:50:00,
2013-07-05 13:00:00,81.7,74.5,30.19,SSW,199,2.0,2.0,79,0.00,,,0.00,954,Wunderground v.1.15,2013-07-05 17:00:00,
2013-07-05 13:05:00,81.9,74.7,30.19,South,173,2.0,2.0,79,0.00,,,0.00,954,Wunderground v.1.15,2013-07-05 17:05:00,
2013-07-05 13:14:00,82.0,74.8,30.19,South,184,2.0,2.0,79,0.00,,,0.00,954,Wunderground v.1.15,2013-07-05 17:14:00,
2013-07-05 13:20:00,82.2,74.7,30.19,SSE,157,2.0,3.0,78,0.00,,,0.00,960,Wunderground v.1.15,2013-07-05 17:20:00,
2013-07-05 13:25:00,82.5,75.3,30.19,SSE,150,2.0,3.0,79,0.00,,,0.00,962,Wunderground v.1.15,2013-07-05 17:25:00,
2013-07-05 13:34:00,82.8,75.2,30.19,SSE,163,2.0,2.0,78,0.00,,,0.00,956,Wunderground v.1.15,2013-07-05 17:34:00,
2013-07-05 13:40:00,83.0,75.0,30.19,South,181,2.0,4.0,77,0.00,,,0.00,949,Wunderground v.1.15,2013-07-05 17:40:00,
2013-07-05 13:45:00,83.2,75.2,30.19,SSE,162,2.0,4.0,77,0.00,,,0.00,947,Wunderground v.1.15,2013-07-05 17:45:00,
2013-07-05 13:50:00,83.3,75.3,30.19,South,174,2.0,2.0,77,0.00,,,0.00,944,Wunderground v.1.15,2013-07-05 17:50:00,
2013-07-05 14:00:00,83.1,75.1,30.18,South,173,2.0,2.0,77,0.00,,,0.00,940,Wunderground v.1.15,2013-07-05 18:00:00,
2013-07-05 14:10:00,83.3,75.3,30.18,WSW,258,2.0,4.0,77,0.00,,,0.00,930,Wunderground v.1.15,2013-07-05 18:10:00,
2013-07-05 14:20:00,83.5,75.1,30.18,West,273,2.0,3.0,76,0.00,,,0.00,921,Wunderground v.1.15,2013-07-05 18:20:00,
2013-07-05 14:25:00,83.5,75.5,30.18,SW,217,2.0,3.0,77,0.00,,,0.00,912,Wunderground v.1.15,2013-07-05 18:25:00,
2013-07-05 14:35:00,83.9,75.5,30.18,WSW,241,2.0,2.0,76,0.00,,,0.00,904,Wunderground v.1.15,2013-07-05 18:35:00,
2013-07-05 14:40:00,84.0,75.2,30.18,South,178,2.0,2.0,75,0.00,,,0.00,896,Wunderground v.1.15,2013-07-05 18:40:00,
2013-07-05 14:50:00,84.1,75.3,30.17,SW,223,2.0,2.0,75,0.00,,,0.00,886,Wunderground v.1.15,2013-07-05 18:50:00,
2013-07-05 14:55:00,84.3,75.9,30.17,West,276,2.0,5.0,76,0.00,,,0.00,874,Wunderground v.1.15,2013-07-05 18:55:00,
2013-07-05 15:05:00,84.8,75.6,30.17,SSW,207,2.0,2.0,74,0.00,,,0.00,861,Wunderground v.1.15,2013-07-05 19:05:00,
2013-07-05 15:10:00,85.0,75.4,30.17,South,178,2.0,2.0,73,0.00,,,0.00,851,Wunderground v.1.15,2013-07-05 19:10:00,
2013-07-05 15:20:00,85.2,76.0,30.17,South,188,2.0,2.0,74,0.00,,,0.00,828,Wunderground v.1.15,2013-07-05 19:20:00,
2013-07-05 15:25:00,85.3,75.7,30.17,South,174,1.0,2.0,73,0.00,,,0.00,819,Wunderground v.1.15,2013-07-05 19:25:00,
2013-07-05 15:34:00,85.5,76.3,30.16,SW,221,1.0,2.0,74,0.00,,,0.00,800,Wunderground v.1.15,2013-07-05 19:34:00,
2013-07-05 15:40:00,85.8,76.5,30.16,SW,229,1.0,2.0,74,0.00,,,0.00,788,Wunderground v.1.15,2013-07-05 19:40:00,
2013-07-05 15:50:00,86.2,76.1,30.16,SW,235,2.0,2.0,72,0.00,,,0.00,765,Wunderground v.1.15,2013-07-05 19:50:00,
2013-07-05 16:00:00,86.0,75.9,30.16,SSW,197,2.0,2.0,72,0.00,,,0.00,740,Wunderground v.1.15,2013-07-05 20:00:00,
2013-07-05 16:05:00,85.9,75.8,30.15,SW,229,2.0,2.0,72,0.00,,,0.00,726,Wunderground v.1.15,2013-07-05 20:05:00,
2013-07-05 16:15:00,85.6,75.5,30.15,West,271,2.0,3.0,72,0.00,,,0.00,701,Wunderground v.1.15,2013-07-05 20:15:00,
2013-07-05 16:25:00,85.6,75.5,30.15,South,190,2.0,4.0,72,0.00,,,0.00,673,Wunderground v.1.15,2013-07-05 20:25:00,
2013-07-05 16:30:00,85.6,75.5,30.15,South,169,2.0,2.0,72,0.00,,,0.00,657,Wunderground v.1.15,2013-07-05 20:30:00,
2013-07-05 16:40:00,85.3,75.2,30.15,South,187,2.0,2.0,72,0.00,,,0.00,624,Wunderground v.1.15,2013-07-05 20:40:00,
2013-07-05 16:50:00,84.5,74.9,30.14,SSW,207,2.0,2.0,73,0.00,,,0.00,603,Wunderground v.1.15,2013-07-05 20:50:00,
2013-07-05 17:00:00,84.4,75.2,30.14,West,273,2.0,4.0,74,0.00,,,0.00,566,Wunderground v.1.15,2013-07-05 21:00:00,
2013-07-05 17:10:00,83.8,75.0,30.14,South,169,2.0,4.0,75,0.00,,,0.00,230,Wunderground v.1.15,2013-07-05 21:10:00,
2013-07-05 17:20:00,83.1,74.7,30.14,SW,225,2.0,2.0,76,0.00,,,0.00,130,Wunderground v.1.15,2013-07-05 21:20:00,
2013-07-05 17:25:00,82.6,74.7,30.14,SW,227,1.0,2.0,77,0.00,,,0.00,121,Wunderground v.1.15,2013-07-05 21:25:00,
2013-07-05 17:30:00,82.2,74.7,30.14,SW,217,1.0,1.0,78,0.00,,,0.00,83,Wunderground v.1.15,2013-07-05 21:30:00,
2013-07-05 17:40:00,81.4,74.3,30.13,SW,231,1.0,1.0,79,0.00,,,0.00,79,Wunderground v.1.15,2013-07-05 21:40:00,
2013-07-05 17:50:00,80.8,74.4,30.13,SW,229,1.0,3.0,81,0.00,,,0.00,67,Wunderground v.1.15,2013-07-05 21:50:00,
2013-07-05 18:00:00,80.3,73.9,30.13,South,184,2.0,2.0,81,0.00,,,0.00,193,Wunderground v.1.15,2013-07-05 22:00:00,
2013-07-05 18:05:00,80.1,74.1,30.13,South,178,2.0,2.0,82,0.00,,,0.00,135,Wunderground v.1.15,2013-07-05 22:05:00,
2013-07-05 18:15:00,79.7,73.7,30.13,SSW,193,1.0,2.0,82,0.00,,,0.00,49,Wunderground v.1.15,2013-07-05 22:15:00,
2013-07-05 18:20:00,79.5,73.9,30.13,SE,142,1.0,2.0,83,0.00,,,0.00,98,Wunderground v.1.15,2013-07-05 22:20:00,
2013-07-05 18:30:00,79.1,73.5,30.13,South,170,2.0,2.0,83,0.00,,,0.00,46,Wunderground v.1.15,2013-07-05 22:30:00,
2013-07-05 18:40:00,78.9,73.7,30.13,West,269,1.0,3.0,84,0.00,,,0.00,39,Wunderground v.1.15,2013-07-05 22:40:00,
2013-07-05 18:50:00,78.6,73.4,30.13,SSW,202,1.0,1.0,84,0.00,,,0.00,39,Wunderground v.1.15,2013-07-05 22:50:00,
2013-07-05 18:55:00,78.4,73.2,30.13,WNW,300,1.0,2.0,84,0.00,,,0.00,33,Wunderground v.1.15,2013-07-05 22:55:00,
2013-07-05 19:04:00,78.2,73.3,30.12,SW,230,1.0,2.0,85,0.00,,,0.00,30,Wunderground v.1.15,2013-07-05 23:04:00,
2013-07-05 19:10:00,78.1,73.2,30.12,West,279,1.0,2.0,85,0.00,,,0.00,28,Wunderground v.1.15,2013-07-05 23:10:00,
2013-07-05 19:20:00,77.9,73.0,30.12,South,184,1.0,1.0,85,0.00,,,0.00,28,Wunderground v.1.15,2013-07-05 23:20:00,
2013-07-05 19:24:00,77.8,72.9,30.12,WSW,252,1.0,2.0,85,0.00,,,0.00,37,Wunderground v.1.15,2013-07-05 23:24:00,
2013-07-05 19:30:00,77.7,72.8,30.12,WSW,250,1.0,1.0,85,0.00,,,0.00,39,Wunderground v.1.15,2013-07-05 23:30:00,
2013-07-05 19:40:00,77.5,73.0,30.12,South,184,0.0,4.0,86,0.00,,,0.00,21,Wunderground v.1.15,2013-07-05 23:40:00,
2013-07-05 19:45:00,77.3,72.8,30.12,South,180,0.0,4.0,86,0.00,,,0.00,19,Wunderground v.1.15,2013-07-05 23:45:00,
2013-07-05 19:55:00,77.0,72.5,30.12,SW,235,1.0,2.0,86,0.00,,,0.00,12,Wunderground v.1.15,2013-07-05 23:55:00,
2013-07-05 20:00:00,76.8,72.3,30.12,WSW,241,1.0,2.0,86,0.00,,,0.00,11,Wunderground v.1.15,2013-07-06 00:00:00,
2013-07-05 20:10:00,76.3,72.1,30.12,SE,145,1.0,1.0,87,0.00,,,0.00,7,Wunderground v.1.15,2013-07-06 00:10:00,
2013-07-05 20:20:00,75.9,72.1,30.12,South,179,1.0,1.0,88,0.00,,,0.00,0,Wunderground v.1.15,2013-07-06 00:20:00,
2013-07-05 20:30:00,75.6,71.8,30.12,South,178,1.0,1.0,88,0.00,,,0.00,0,Wunderground v.1.15,2013-07-06 00:30:00,
2013-07-05 20:35:00,75.5,72.0,30.12,SW,218,1.0,3.0,89,0.00,,,0.00,0,Wunderground v.1.15,2013-07-06 00:35:00,
2013-07-05 20:45:00,75.2,71.7,30.12,SW,226,1.0,1.0,89,0.00,,,0.00,0,Wunderground v.1.15,2013-07-06 00:45:00,
2013-07-05 20:55:00,74.9,71.4,30.12,South,177,1.0,2.0,89,0.00,,,0.00,0,Wunderground v.1.15,2013-07-06 00:55:00,
2013-07-05 21:00:00,74.8,71.7,30.12,SSE,162,1.0,3.0,90,0.00,,,0.00,0,Wunderground v.1.15,2013-07-06 01:00:00,
2013-07-05 21:10:00,74.6,71.5,30.12,South,183,1.0,1.0,90,0.00,,,0.00,0,Wunderground v.1.15,2013-07-06 01:10:00,
2013-07-05 21:20:00,74.4,71.3,30.12,West,263,1.0,1.0,90,0.00,,,0.00,0,Wunderground v.1.15,2013-07-06 01:20:00,
2013-07-05 21:30:00,74.2,71.1,30.13,West,266,1.0,1.0,90,0.00,,,0.00,0,Wunderground v.1.15,2013-07-06 01:30:00,
2013-07-05 21:35:00,74.2,71.1,30.13,WSW,248,1.0,1.0,90,0.00,,,0.00,0,Wunderground v.1.15,2013-07-06 01:35:00,
2013-07-05 21:40:00,74.1,71.0,30.13,SW,225,1.0,1.0,90,0.00,,,0.00,0,Wunderground v.1.15,2013-07-06 01:40:00,
2013-07-05 21:50:00,74.0,70.9,30.13,WNW,288,1.0,1.0,90,0.00,,,0.00,0,Wunderground v.1.15,2013-07-06 01:50:00,
2013-07-05 21:55:00,73.9,70.8,30.13,South,190,1.0,1.0,90,0.00,,,0.00,0,Wunderground v.1.15,2013-07-06 01:55:00,
2013-07-05 22:00:00,73.9,70.8,30.14,South,178,1.0,1.0,90,0.00,,,0.00,0,Wunderground v.1.15,2013-07-06 02:00:00,
2013-07-05 22:05:00,73.9,70.8,30.14,SSW,209,1.0,1.0,90,0.00,,,0.00,0,Wunderground v.1.15,2013-07-06 02:05:00,
2013-07-05 22:15:00,73.9,70.8,30.13,SSW,192,1.0,1.0,90,0.00,,,0.00,0,Wunderground v.1.15,2013-07-06 02:15:00,
2013-07-05 22:25:00,73.9,70.8,30.13,South,182,1.0,4.0,90,0.00,,,0.00,0,Wunderground v.1.15,2013-07-06 02:25:00,
2013-07-05 22:35:00,73.9,70.8,30.13,South,179,1.0,2.0,90,0.00,,,0.00,0,Wunderground v.1.15,2013-07-06 02:35:00,
2013-07-05 22:40:00,73.9,70.8,30.13,WSW,250,1.0,1.0,90,0.00,,,0.00,0,Wunderground v.1.15,2013-07-06 02:40:00,
2013-07-05 22:50:00,74.1,71.0,30.13,SW,236,2.0,2.0,90,0.00,,,0.00,0,Wunderground v.1.15,2013-07-06 02:50:00,
2013-07-05 23:00:00,74.3,71.2,30.13,SSW,193,1.0,1.0,90,0.00,,,0.00,0,Wunderground v.1.15,2013-07-06 03:00:00,
2013-07-05 23:10:00,74.4,71.3,30.13,South,186,2.0,2.0,90,0.00,,,0.00,0,Wunderground v.1.15,2013-07-06 03:10:00,
2013-07-05 23:20:00,74.4,70.9,30.13,West,277,1.0,2.0,89,0.00,,,0.00,0,Wunderground v.1.15,2013-07-06 03:20:00,
2013-07-05 23:25:00,74.5,71.0,30.13,West,268,1.0,2.0,89,0.00,,,0.00,0,Wunderground v.1.15,2013-07-06 03:25:00,
2013-07-05 23:35:00,74.5,71.0,30.13,SW,225,1.0,2.0,89,0.00,,,0.00,0,Wunderground v.1.15,2013-07-06 03:35:00,
2013-07-05 23:40:00,74.6,71.1,30.13,West,259,1.0,1.0,89,0.00,,,0.00,0,Wunderground v.1.15,2013-07-06 03:40:00,
2013-07-05 23:50:00,74.7,71.2,30.13,WSW,254,2.0,2.0,89,0.00,,,0.00,0,Wunderground v.1.15,2013-07-06 03:50:00,